Time;durP1;ratioP1;P1;durP2;ratioP2;P2;SDS_P1;SDS_P2;PMS_P1;PMS_P2;Temp;Humidity;BMP_temperature;BMP_pressure;BME280_temperature;BME280_humidity;BME280_pressure;Samples;Min_cycle;Max_cycle;Signal;HPM_P1;HPM_P2
2022/11/04 00:01:47;;;;;;;16.50;7.43;;;8.30;99.90;;;;;;5248263;28;20781;-48
2022/11/04 00:04:19;;;;;;;16.70;7.33;;;8.30;99.90;;;;;;5248856;28;20874;-49
2022/11/04 00:06:51;;;;;;;14.33;7.27;;;8.30;99.90;;;;;;5249675;28;21018;-50
2022/11/04 00:09:24;;;;;;;13.43;7.13;;;8.30;99.90;;;;;;5244314;28;20527;-48
2022/11/04 00:14:44;;;;;;;23.20;8.60;;;8.30;99.90;;;;;;5249032;28;20427;-49
2022/11/04 00:17:21;;;;;;;14.37;7.53;;;8.20;99.90;;;;;;5249828;28;20437;-49
2022/11/04 00:28:43;;;;;;;15.53;7.97;;;8.20;99.90;;;;;;5233202;28;20449;-49
2022/11/04 00:34:03;;;;;;;14.67;7.83;;;8.20;99.90;;;;;;5240768;28;20429;-48
2022/11/04 00:36:34;;;;;;;16.23;7.57;;;8.30;99.90;;;;;;5245065;28;20768;-47
2022/11/04 00:39:04;;;;;;;14.10;8.03;;;8.20;99.90;;;;;;5235878;28;20210;-47
2022/11/04 00:41:35;;;;;;;16.83;8.13;;;8.20;99.90;;;;;;5238687;28;20240;-49
2022/11/04 00:44:05;;;;;;;16.40;7.03;;;8.20;99.90;;;;;;5248915;28;20182;-48
2022/11/04 00:46:36;;;;;;;13.63;6.90;;;8.20;99.90;;;;;;5247274;28;20247;-50
2022/11/04 00:49:06;;;;;;;14.93;7.73;;;8.20;99.90;;;;;;5242661;28;20210;-47
2022/11/04 00:51:37;;;;;;;15.00;8.47;;;8.20;99.90;;;;;;5243655;28;20171;-49
2022/11/04 00:54:08;;;;;;;17.17;8.07;;;8.10;99.90;;;;;;5244824;28;20634;-48
2022/11/04 00:56:40;;;;;;;11.23;7.97;;;8.10;99.90;;;;;;5238192;28;20526;-49
2022/11/04 00:59:10;;;;;;;12.60;8.30;;;8.10;99.90;;;;;;5240076;28;20464;-49
2022/11/04 01:01:41;;;;;;;13.77;8.20;;;8.10;99.90;;;;;;5237917;28;20429;-50
2022/11/04 01:04:12;;;;;;;16.20;7.87;;;8.10;99.90;;;;;;5235270;28;20183;-48
2022/11/04 01:06:42;;;;;;;14.10;7.57;;;8.10;99.90;;;;;;5233654;28;20440;-51
2022/11/04 01:09:13;;;;;;;20.73;8.00;;;8.10;99.90;;;;;;5247134;28;20213;-51
2022/11/04 01:11:44;;;;;;;19.90;9.07;;;8.10;99.90;;;;;;5237928;28;20175;-52
2022/11/04 01:14:15;;;;;;;12.47;8.77;;;8.00;99.90;;;;;;5242638;28;20175;-52
2022/11/04 01:16:47;;;;;;;16.80;8.60;;;8.00;99.90;;;;;;5244204;28;20220;-51
2022/11/04 01:19:18;;;;;;;18.80;8.50;;;8.00;99.90;;;;;;5236724;28;20559;-50
2022/11/04 01:21:52;;;;;;;11.87;8.07;;;8.00;99.90;;;;;;5238580;28;24556;-52
2022/11/04 01:24:23;;;;;;;21.73;9.03;;;8.00;99.90;;;;;;5246975;28;20250;-51
2022/11/04 01:26:53;;;;;;;18.93;9.33;;;8.00;99.90;;;;;;5240347;28;20432;-51
2022/11/04 01:29:24;;;;;;;16.23;8.60;;;8.00;99.90;;;;;;5263235;28;20695;-51
2022/11/04 01:31:54;;;;;;;22.53;8.00;;;8.00;99.90;;;;;;5228256;28;20186;-52
2022/11/04 01:34:25;;;;;;;19.37;8.83;;;8.00;99.90;;;;;;5234763;28;20182;-51
2022/11/04 01:36:55;;;;;;;14.33;8.90;;;8.10;99.90;;;;;;5243052;28;20179;-52
2022/11/04 01:39:26;;;;;;;15.33;8.07;;;8.10;99.90;;;;;;5245069;28;20240;-52
2022/11/04 01:41:57;;;;;;;17.40;9.00;;;8.10;99.90;;;;;;5239263;28;20600;-51
2022/11/04 01:44:49;;;;;;;17.13;9.60;;;8.10;99.90;;;;;;5235806;28;20221;-49
2022/11/04 01:47:38;;;;;;;22.13;8.67;;;8.20;99.90;;;;;;5243659;28;20257;-52
2022/11/04 01:50:20;;;;;;;18.73;8.33;;;8.20;99.90;;;;;;5246088;28;20467;-57
2022/11/04 01:53:05;;;;;;;11.87;7.83;;;8.20;99.90;;;;;;5243172;28;20774;-51
2022/11/04 01:55:41;;;;;;;18.47;8.17;;;8.20;99.90;;;;;;5229821;28;20512;-52
2022/11/04 01:58:16;;;;;;;16.63;8.07;;;8.20;99.90;;;;;;5231703;28;20456;-51
2022/11/04 02:00:47;;;;;;;12.40;8.37;;;8.20;99.90;;;;;;5245487;28;20519;-51
2022/11/04 02:03:23;;;;;;;13.00;8.20;;;8.30;99.90;;;;;;5241389;28;21833;-52
2022/11/04 02:05:54;;;;;;;21.30;9.63;;;8.30;99.90;;;;;;5242829;28;20920;-52
2022/11/04 02:08:25;;;;;;;17.97;9.60;;;8.30;99.90;;;;;;5251246;28;20477;-52
2022/11/04 02:11:01;;;;;;;19.47;8.77;;;8.30;99.90;;;;;;5239524;28;20192;-50
2022/11/04 02:13:34;;;;;;;13.53;7.80;;;8.30;99.90;;;;;;5245292;28;20482;-52
2022/11/04 02:16:10;;;;;;;21.37;10.37;;;8.30;99.90;;;;;;5245444;28;20644;-52
2022/11/04 02:19:16;;;;;;;15.87;8.20;;;8.30;99.90;;;;;;5243439;28;20939;-52
2022/11/04 02:22:09;;;;;;;18.57;9.83;;;8.30;99.90;;;;;;5255180;28;20447;-50
2022/11/04 02:25:12;;;;;;;34.87;9.90;;;8.30;99.90;;;;;;5249827;28;20441;-50
2022/11/04 02:27:55;;;;;;;16.73;9.03;;;8.20;99.90;;;;;;5244822;28;20543;-51
2022/11/04 02:30:34;;;;;;;19.13;8.73;;;8.20;99.90;;;;;;5246489;28;20443;-51
2022/11/04 02:33:14;;;;;;;21.77;9.13;;;8.20;99.90;;;;;;5232536;28;20436;-52
2022/11/04 02:36:08;;;;;;;20.10;9.07;;;8.20;99.90;;;;;;5245545;28;20431;-50
2022/11/04 02:38:48;;;;;;;16.83;9.70;;;8.10;99.90;;;;;;5237044;28;21098;-50
2022/11/04 02:41:53;;;;;;;11.70;8.20;;;8.10;99.90;;;;;;5242190;28;20510;-51
2022/11/04 02:44:38;;;;;;;16.70;10.10;;;8.00;99.90;;;;;;5225117;28;20928;-51
2022/11/04 02:47:20;;;;;;;17.73;9.93;;;8.00;99.90;;;;;;5242467;28;20532;-51
2022/11/04 02:49:56;;;;;;;22.07;10.20;;;8.00;99.90;;;;;;5237821;28;20505;-51
2022/11/04 02:52:40;;;;;;;20.87;9.40;;;7.90;99.90;;;;;;5249044;28;20527;-52
2022/11/04 02:55:18;;;;;;;15.20;8.57;;;7.90;99.90;;;;;;5239228;28;20437;-51
2022/11/04 02:57:51;;;;;;;15.63;9.10;;;7.90;99.90;;;;;;5231150;28;20482;-51
2022/11/04 03:00:23;;;;;;;17.27;9.53;;;7.90;99.90;;;;;;5241085;28;20971;-51
2022/11/04 03:03:02;;;;;;;16.60;9.53;;;7.90;99.90;;;;;;5248988;28;20859;-53
2022/11/04 03:05:37;;;;;;;16.90;9.30;;;7.90;99.90;;;;;;5246913;28;20416;-50
2022/11/04 03:08:14;;;;;;;16.23;9.27;;;7.90;99.90;;;;;;5250933;28;20459;-50
2022/11/04 03:10:51;;;;;;;14.13;9.60;;;7.90;99.90;;;;;;5240574;28;20432;-52
2022/11/04 03:13:39;;;;;;;16.73;10.67;;;7.90;99.90;;;;;;5254268;28;20429;-52
2022/11/04 03:16:16;;;;;;;15.00;9.80;;;7.90;99.90;;;;;;5252804;28;20432;-49
2022/11/04 03:19:11;;;;;;;13.90;8.13;;;7.90;99.90;;;;;;5248646;28;20971;-52
2022/11/04 03:21:50;;;;;;;12.17;8.27;;;7.90;99.90;;;;;;5245369;28;20806;-51
2022/11/04 03:24:21;;;;;;;14.37;10.37;;;7.90;99.90;;;;;;5246788;28;20478;-51
2022/11/04 03:27:26;;;;;;;18.07;8.87;;;7.90;99.90;;;;;;5248520;28;20869;-48
2022/11/04 03:30:05;;;;;;;15.43;9.27;;;7.90;99.90;;;;;;5216084;28;20233;-52
2022/11/04 03:32:54;;;;;;;15.20;8.80;;;7.90;99.90;;;;;;5231125;28;20421;-52
2022/11/04 03:35:26;;;;;;;24.40;10.00;;;7.90;99.90;;;;;;5246549;28;20514;-51
2022/11/04 03:37:57;;;;;;;14.90;9.20;;;7.90;99.90;;;;;;5245544;28;20528;-50
2022/11/04 03:40:28;;;;;;;23.47;10.83;;;8.00;99.90;;;;;;5242569;28;20527;-51
2022/11/04 03:43:13;;;;;;;15.63;9.60;;;8.00;99.90;;;;;;5236682;28;20191;-50
2022/11/04 03:45:44;;;;;;;15.97;9.10;;;8.00;99.90;;;;;;5232023;28;20190;-50
2022/11/04 03:48:15;;;;;;;20.77;10.67;;;8.00;99.90;;;;;;5233471;28;20465;-51
2022/11/04 03:50:47;;;;;;;16.80;9.10;;;8.10;99.90;;;;;;5240523;28;20485;-51
2022/11/04 03:53:21;;;;;;;19.80;9.43;;;8.20;99.90;;;;;;5231751;28;20550;-52
2022/11/04 03:56:10;;;;;;;14.20;9.00;;;8.20;99.90;;;;;;5250953;28;20440;-50
2022/11/04 03:58:53;;;;;;;17.33;8.50;;;8.20;99.90;;;;;;5244815;28;20807;-50
2022/11/04 04:01:47;;;;;;;16.70;9.30;;;8.20;99.90;;;;;;5256684;28;20947;-51
2022/11/04 04:04:34;;;;;;;16.50;10.30;;;8.30;99.90;;;;;;5238734;28;20765;-50
2022/11/04 04:07:16;;;;;;;14.33;9.03;;;8.30;99.90;;;;;;5234770;28;20879;-52
2022/11/04 04:10:58;;;;;;;19.60;8.57;;;8.20;99.90;;;;;;5254864;28;20963;-51
2022/11/04 04:13:35;;;;;;;17.50;9.03;;;8.30;99.90;;;;;;5226078;28;20437;-52
2022/11/04 04:16:39;;;;;;;22.87;10.33;;;8.20;99.90;;;;;;5243661;28;21001;-52
2022/11/04 04:19:14;;;;;;;21.67;10.20;;;8.30;99.90;;;;;;5236693;28;20551;-52
2022/11/04 04:22:17;;;;;;;21.37;9.37;;;8.30;99.90;;;;;;5258081;28;20525;-51
2022/11/04 04:27:41;;;;;;;17.17;9.27;;;8.40;99.90;;;;;;5248986;28;20456;-51
2022/11/04 04:30:15;;;;;;;11.97;8.00;;;8.40;99.90;;;;;;5231688;28;20519;-51
2022/11/04 04:32:52;;;;;;;15.37;8.47;;;8.50;99.90;;;;;;5248744;28;20429;-53
2022/11/04 04:35:42;;;;;;;19.87;9.83;;;8.40;99.90;;;;;;5248072;28;20778;-50
2022/11/04 04:47:21;;;;;;;12.10;9.90;;;8.50;99.90;;;;;;5242715;28;20433;-51
2022/11/04 04:49:53;;;;;;;20.47;9.63;;;8.50;99.90;;;;;;5231983;28;20498;-52
2022/11/04 04:52:35;;;;;;;14.10;9.53;;;8.50;99.90;;;;;;5256372;28;20430;-51
2022/11/04 04:55:07;;;;;;;16.40;9.27;;;8.60;99.90;;;;;;5247566;28;20948;-51
2022/11/04 04:57:37;;;;;;;15.03;9.27;;;8.60;99.90;;;;;;5246037;28;20456;-52
2022/11/04 05:00:12;;;;;;;20.70;9.53;;;8.60;99.90;;;;;;5246177;28;20428;-49
2022/11/04 05:02:43;;;;;;;14.23;9.63;;;8.60;99.90;;;;;;5242971;28;20311;-50
2022/11/04 05:05:14;;;;;;;13.17;9.63;;;8.60;99.90;;;;;;5234367;28;20519;-51
2022/11/04 05:07:44;;;;;;;20.07;9.83;;;8.60;99.90;;;;;;5245109;28;20214;-52
2022/11/04 05:10:16;;;;;;;16.20;9.50;;;8.60;99.90;;;;;;5245553;28;20576;-52
2022/11/04 05:15:35;;;;;;;11.20;8.87;;;8.60;99.90;;;;;;5249341;28;20474;-51
2022/11/04 05:18:06;;;;;;;21.63;10.60;;;8.70;99.90;;;;;;5248207;28;20821;-51
2022/11/04 05:20:39;;;;;;;23.23;9.90;;;8.60;99.90;;;;;;5243972;28;20189;-52
2022/11/04 05:23:11;;;;;;;27.47;10.50;;;8.70;99.90;;;;;;5238118;28;20179;-51
2022/11/04 05:25:41;;;;;;;23.60;9.30;;;8.70;99.90;;;;;;5236912;28;20967;-51
2022/11/04 05:28:12;;;;;;;15.17;8.50;;;8.70;99.90;;;;;;5254120;28;20453;-51
2022/11/04 05:30:43;;;;;;;21.47;8.40;;;8.70;99.90;;;;;;5244678;28;20182;-51
2022/11/04 05:33:13;;;;;;;16.00;10.57;;;8.80;99.90;;;;;;5249064;28;20175;-51
2022/11/04 05:35:44;;;;;;;11.13;8.10;;;8.80;99.90;;;;;;5237148;28;20187;-52
2022/11/04 05:38:14;;;;;;;15.07;9.67;;;8.80;99.90;;;;;;5251241;28;20207;-50
2022/11/04 05:40:45;;;;;;;11.57;8.73;;;8.80;99.90;;;;;;5234011;28;20199;-52
2022/11/04 05:43:16;;;;;;;15.10;9.80;;;8.80;99.90;;;;;;5237890;28;20315;-52
2022/11/04 05:45:46;;;;;;;16.87;9.87;;;8.80;99.90;;;;;;5236274;28;20580;-52
2022/11/04 05:48:17;;;;;;;15.03;8.90;;;8.80;99.90;;;;;;5250584;28;20206;-49
2022/11/04 05:50:47;;;;;;;14.43;8.87;;;8.80;99.90;;;;;;5233108;28;20229;-51
2022/11/04 05:53:18;;;;;;;15.83;8.63;;;8.90;99.90;;;;;;5234541;28;20182;-52
2022/11/04 05:55:48;;;;;;;14.87;8.90;;;8.90;99.90;;;;;;5237370;28;20179;-51
2022/11/04 05:58:19;;;;;;;18.57;9.37;;;9.00;99.90;;;;;;5241351;28;20210;-49
2022/11/04 06:00:49;;;;;;;26.03;10.40;;;8.90;99.90;;;;;;5241391;28;20559;-52
2022/11/04 06:03:20;;;;;;;15.70;10.07;;;8.90;99.90;;;;;;5233737;28;20273;-52
2022/11/04 06:05:51;;;;;;;15.57;9.83;;;8.90;99.90;;;;;;5249304;28;20218;-51
2022/11/04 06:08:21;;;;;;;15.03;8.50;;;8.90;99.90;;;;;;5244277;28;20605;-51
2022/11/04 06:10:52;;;;;;;22.33;11.03;;;8.90;99.90;;;;;;5240683;28;20198;-51
2022/11/04 06:13:22;;;;;;;15.90;9.70;;;8.90;99.90;;;;;;5242056;28;20703;-52
2022/11/04 06:15:53;;;;;;;15.37;9.43;;;8.80;99.90;;;;;;5243701;28;20659;-52
2022/11/04 06:18:23;;;;;;;25.03;9.77;;;8.90;99.90;;;;;;5241713;28;20236;-52
2022/11/04 06:21:06;;;;;;;17.30;10.53;;;8.80;99.90;;;;;;5244330;28;20542;-51
2022/11/04 06:23:36;;;;;;;16.13;10.07;;;8.90;99.90;;;;;;5258423;28;20194;-52
2022/11/04 06:26:08;;;;;;;17.53;10.83;;;8.90;99.90;;;;;;5237485;28;20449;-52
2022/11/04 06:28:38;;;;;;;18.43;10.10;;;8.90;99.90;;;;;;5239968;28;20210;-50
2022/11/04 06:31:11;;;;;;;18.10;9.53;;;9.00;99.90;;;;;;5244268;28;20444;-51
2022/11/04 06:33:42;;;;;;;17.93;10.60;;;9.10;99.90;;;;;;5214739;28;20186;-51
2022/11/04 06:36:14;;;;;;;18.67;11.27;;;9.20;99.90;;;;;;5245196;28;20436;-50
2022/11/04 06:38:45;;;;;;;14.40;9.57;;;9.30;99.90;;;;;;5238736;28;20511;-53
2022/11/04 06:41:16;;;;;;;22.17;10.10;;;9.40;99.90;;;;;;5234643;28;20544;-50
2022/11/04 06:43:46;;;;;;;18.53;11.03;;;9.80;99.90;;;;;;5241920;28;20190;-52
2022/11/04 06:46:28;;;;;;;17.70;9.87;;;9.70;99.90;;;;;;5245376;28;20557;-51
2022/11/04 06:48:58;;;;;;;16.73;10.57;;;9.60;99.90;;;;;;5239123;28;20245;-49
2022/11/04 06:51:29;;;;;;;16.17;9.93;;;9.60;99.90;;;;;;5255213;28;20801;-51
2022/11/04 06:54:00;;;;;;;18.43;9.70;;;9.80;99.90;;;;;;5244262;28;20545;-50
2022/11/04 06:56:30;;;;;;;16.00;10.70;;;9.60;99.90;;;;;;5262523;28;20451;-53
2022/11/04 06:59:01;;;;;;;15.93;9.10;;;9.60;99.90;;;;;;5245032;28;20209;-51
2022/11/04 07:01:34;;;;;;;11.30;9.60;;;9.60;99.90;;;;;;5244952;28;20186;-50
2022/11/04 07:04:05;;;;;;;9.17;8.40;;;9.60;99.90;;;;;;5244443;28;20491;-52
2022/11/04 07:06:35;;;;;;;13.90;9.80;;;9.70;99.90;;;;;;5245830;28;20440;-50
2022/11/04 07:09:06;;;;;;;18.90;9.97;;;9.60;99.90;;;;;;5243696;28;20593;-50
2022/11/04 07:11:37;;;;;;;12.63;9.30;;;9.70;99.90;;;;;;5242853;28;20179;-50
2022/11/04 07:14:08;;;;;;;16.10;9.80;;;9.70;99.90;;;;;;5240523;28;20189;-53
2022/11/04 07:16:38;;;;;;;18.30;11.00;;;9.80;99.90;;;;;;5239842;28;20643;-51
2022/11/04 07:19:09;;;;;;;22.80;11.33;;;9.80;99.90;;;;;;5234366;28;21719;-52
2022/11/04 07:21:39;;;;;;;10.63;9.53;;;9.80;99.90;;;;;;5241813;28;20235;-52
2022/11/04 07:24:10;;;;;;;19.50;11.07;;;9.80;99.90;;;;;;5240157;28;20301;-52
2022/11/04 07:26:41;;;;;;;15.50;10.63;;;9.90;99.90;;;;;;5242059;28;20182;-51
2022/11/04 07:29:11;;;;;;;22.50;12.10;;;9.90;99.90;;;;;;5238925;28;20206;-53
2022/11/04 07:31:42;;;;;;;15.10;10.43;;;9.80;99.90;;;;;;5241285;28;20460;-54
2022/11/04 07:34:13;;;;;;;14.40;11.10;;;9.80;99.90;;;;;;5245910;28;20189;-57
2022/11/04 07:36:43;;;;;;;21.93;10.90;;;9.80;99.90;;;;;;5241426;28;20642;-52
2022/11/04 07:39:15;;;;;;;15.47;11.43;;;9.90;99.90;;;;;;5245886;28;20284;-50
2022/11/04 07:41:45;;;;;;;18.40;11.13;;;9.80;99.90;;;;;;5242208;28;20267;-52
2022/11/04 07:44:16;;;;;;;20.27;10.40;;;9.90;99.90;;;;;;5248225;28;20483;-51
2022/11/04 07:46:46;;;;;;;15.73;10.50;;;9.90;99.90;;;;;;5247284;28;20190;-52
2022/11/04 07:49:17;;;;;;;13.23;10.00;;;9.90;99.90;;;;;;5246710;28;20202;-52
2022/11/04 07:51:47;;;;;;;14.77;10.63;;;9.90;99.90;;;;;;5246023;28;20183;-51
2022/11/04 07:54:18;;;;;;;18.87;11.20;;;10.00;99.90;;;;;;5247955;28;20702;-52
2022/11/04 07:56:48;;;;;;;16.27;12.00;;;10.00;99.90;;;;;;5244669;28;20267;-51
2022/11/04 07:59:19;;;;;;;16.67;12.33;;;10.20;99.90;;;;;;5245189;28;20194;-51
2022/11/04 08:01:49;;;;;;;21.13;11.47;;;10.30;99.90;;;;;;5246334;28;20680;-52
2022/11/04 08:04:20;;;;;;;15.47;12.10;;;10.50;99.90;;;;;;5247060;28;20248;-52
2022/11/04 08:06:51;;;;;;;22.53;13.33;;;10.60;99.90;;;;;;5247529;28;20239;-52
2022/11/04 08:09:22;;;;;;;21.40;12.97;;;10.60;99.90;;;;;;5248972;28;20201;-50
2022/11/04 08:11:52;;;;;;;19.60;13.23;;;10.60;99.90;;;;;;5247956;28;20239;-53
2022/11/04 08:14:23;;;;;;;17.40;12.37;;;10.70;99.90;;;;;;5244166;28;20937;-49
2022/11/04 08:16:53;;;;;;;22.63;15.33;;;10.70;99.90;;;;;;5242608;28;20204;-52
2022/11/04 08:19:24;;;;;;;23.43;17.23;;;10.70;99.90;;;;;;5246528;28;20604;-52
2022/11/04 08:21:54;;;;;;;29.83;16.10;;;10.80;99.90;;;;;;5244391;28;20194;-52
2022/11/04 08:24:25;;;;;;;23.30;15.20;;;10.70;99.90;;;;;;5245578;28;20555;-52
2022/11/04 08:26:56;;;;;;;21.57;15.27;;;10.70;99.90;;;;;;5248618;28;20610;-52
2022/11/04 08:29:27;;;;;;;19.53;14.77;;;10.70;99.90;;;;;;5244352;28;20290;-51
2022/11/04 08:31:57;;;;;;;22.73;14.80;;;10.70;99.90;;;;;;5239360;28;20175;-52
2022/11/04 08:34:28;;;;;;;25.20;15.47;;;10.60;99.90;;;;;;5261215;28;20175;-52
2022/11/04 08:36:59;;;;;;;26.97;15.03;;;10.70;99.90;;;;;;5245612;28;20279;-51
2022/11/04 08:39:29;;;;;;;27.80;18.30;;;10.70;99.90;;;;;;5244597;28;20179;-52
2022/11/04 08:42:00;;;;;;;19.47;15.10;;;10.80;99.90;;;;;;5229675;28;20243;-49
2022/11/04 08:44:32;;;;;;;20.30;16.70;;;10.80;99.90;;;;;;5245650;28;20186;-52
2022/11/04 08:47:03;;;;;;;21.87;15.13;;;10.80;99.90;;;;;;5222947;28;20202;-52
2022/11/04 08:49:40;;;;;;;25.33;16.03;;;10.80;99.90;;;;;;5241661;28;20464;-52
2022/11/04 08:52:11;;;;;;;21.93;14.87;;;10.90;99.90;;;;;;5241959;28;20174;-51
2022/11/04 08:54:43;;;;;;;34.23;18.80;;;11.00;99.90;;;;;;5245682;28;21014;-50
2022/11/04 08:57:14;;;;;;;27.07;16.97;;;11.10;99.90;;;;;;5246881;28;20205;-52
2022/11/04 08:59:44;;;;;;;24.90;16.33;;;11.10;99.90;;;;;;5243443;28;20940;-51
2022/11/04 09:02:15;;;;;;;27.90;15.20;;;11.30;99.90;;;;;;5245376;28;20178;-51
2022/11/04 09:04:45;;;;;;;22.37;15.00;;;11.30;99.90;;;;;;5243361;28;20218;-55
2022/11/04 09:07:16;;;;;;;18.47;13.70;;;11.40;99.90;;;;;;5245350;28;20234;-52
2022/11/04 09:09:47;;;;;;;15.80;11.27;;;11.50;99.90;;;;;;5245644;28;20620;-52
2022/11/04 09:12:18;;;;;;;14.80;11.33;;;11.40;99.90;;;;;;5238513;28;20174;-53
2022/11/04 09:14:48;;;;;;;13.13;8.97;;;11.50;99.90;;;;;;5245521;28;20193;-49
2022/11/04 09:17:19;;;;;;;12.83;8.97;;;11.40;99.90;;;;;;5242691;28;20209;-52
2022/11/04 09:19:50;;;;;;;10.77;7.90;;;11.40;99.90;;;;;;5243463;28;20200;-53
2022/11/04 09:22:20;;;;;;;12.10;8.60;;;11.40;99.90;;;;;;5240481;28;20649;-53
2022/11/04 09:24:51;;;;;;;9.30;8.17;;;11.50;99.90;;;;;;5243780;28;20637;-52
2022/11/04 09:27:21;;;;;;;9.40;7.80;;;11.50;99.90;;;;;;5247953;28;20212;-55
2022/11/04 09:29:52;;;;;;;12.13;8.13;;;11.60;99.90;;;;;;5244695;28;20256;-52
2022/11/04 09:32:22;;;;;;;10.07;7.87;;;11.70;99.90;;;;;;5246606;28;20194;-51
2022/11/04 09:34:53;;;;;;;15.23;8.37;;;11.70;99.90;;;;;;5246993;28;20261;-50
2022/11/04 09:37:24;;;;;;;9.63;7.33;;;11.80;99.90;;;;;;5241237;28;20206;-54
2022/11/04 09:39:54;;;;;;;14.03;7.70;;;11.90;99.90;;;;;;5245234;28;20221;-52
2022/11/04 09:42:46;;;;;;;12.00;8.20;;;11.80;99.90;;;;;;5243500;28;20198;-51
2022/11/04 09:45:23;;;;;;;14.80;7.90;;;12.00;99.90;;;;;;5242075;28;20201;-52
2022/11/04 09:48:02;;;;;;;17.23;8.73;;;11.90;99.90;;;;;;5262104;28;20448;-50
2022/11/04 09:50:51;;;;;;;7.37;6.50;;;12.10;99.90;;;;;;5242316;28;21038;-52
2022/11/04 09:53:31;;;;;;;10.53;7.27;;;12.10;99.90;;;;;;5243038;28;20513;-51
2022/11/04 09:56:19;;;;;;;8.23;6.63;;;12.20;99.90;;;;;;5242864;28;20475;-52
2022/11/04 09:58:51;;;;;;;12.50;8.47;;;12.20;99.90;;;;;;5244580;28;20452;-51
2022/11/04 10:01:51;;;;;;;7.07;6.37;;;12.10;99.90;;;;;;5241376;28;20516;-51
2022/11/04 10:04:56;;;;;;;7.10;6.30;;;12.10;99.90;;;;;;5235810;28;20443;-51
2022/11/04 10:07:35;;;;;;;14.87;8.07;;;12.20;99.90;;;;;;5267636;22;20492;-52
2022/11/04 10:10:23;;;;;;;9.73;6.90;;;12.30;99.90;;;;;;5229441;28;20554;-53
2022/11/04 10:13:02;;;;;;;13.83;7.27;;;12.20;99.90;;;;;;5256187;28;20474;-50
2022/11/04 10:16:07;;;;;;;14.87;10.50;;;12.20;99.90;;;;;;5235660;28;20983;-51
2022/11/04 10:19:11;;;;;;;35.33;16.23;;;12.10;99.90;;;;;;5236854;28;20453;-50
2022/11/04 10:22:02;;;;;;;16.87;7.97;;;12.00;99.90;;;;;;5238725;28;20458;-52
2022/11/04 10:24:45;;;;;;;16.23;8.93;;;12.10;99.90;;;;;;5244300;28;20425;-49
2022/11/04 10:27:22;;;;;;;11.30;8.80;;;12.00;99.90;;;;;;5238707;28;20542;-50
2022/11/04 10:30:03;;;;;;;30.73;14.60;;;11.90;99.90;;;;;;5235819;28;20989;-51
2022/11/04 10:32:35;;;;;;;16.10;8.60;;;12.00;99.90;;;;;;5234959;28;20432;-50
2022/11/04 10:35:20;;;;;;;11.30;6.57;;;12.00;99.90;;;;;;5240028;28;20425;-49
2022/11/04 10:37:53;;;;;;;10.13;6.70;;;11.90;99.90;;;;;;5230586;28;20460;-48
2022/11/04 10:40:31;;;;;;;8.83;6.90;;;12.00;99.90;;;;;;5223990;28;21260;-51
2022/11/04 10:43:08;;;;;;;10.03;6.63;;;12.00;99.90;;;;;;5232272;28;20887;-50
2022/11/04 10:46:01;;;;;;;12.20;6.83;;;12.00;99.90;;;;;;5236075;28;20496;-49
2022/11/04 10:48:42;;;;;;;14.13;6.93;;;12.10;99.90;;;;;;5213237;28;20472;-50
2022/11/04 10:51:20;;;;;;;11.50;8.13;;;12.20;99.90;;;;;;5239002;28;20516;-50
2022/11/04 10:53:55;;;;;;;8.10;6.90;;;12.20;99.90;;;;;;5234998;28;20440;-51
2022/11/04 10:56:42;;;;;;;7.43;6.47;;;12.10;99.90;;;;;;5241531;28;20431;-51
2022/11/04 10:59:16;;;;;;;9.37;6.90;;;12.10;99.90;;;;;;5238600;28;20511;-51
2022/11/04 11:01:50;;;;;;;7.50;6.10;;;12.00;99.90;;;;;;5233789;28;20436;-50
2022/11/04 11:04:27;;;;;;;10.33;7.07;;;11.90;99.90;;;;;;5243232;28;20443;-49
2022/11/04 11:07:01;;;;;;;10.30;7.53;;;11.90;99.90;;;;;;5236619;28;20436;-50
2022/11/04 11:09:41;;;;;;;21.40;12.10;;;11.80;99.90;;;;;;5236784;28;20465;-51
2022/11/04 11:12:11;;;;;;;13.37;8.40;;;11.70;99.90;;;;;;5236791;28;20451;-51
2022/11/04 11:14:42;;;;;;;15.27;7.47;;;11.60;99.90;;;;;;5243569;28;20528;-50
2022/11/04 11:17:29;;;;;;;16.13;9.17;;;11.60;99.90;;;;;;5240286;28;20182;-52
2022/11/04 11:20:17;;;;;;;11.13;6.93;;;11.60;99.90;;;;;;5231318;28;20194;-48
2022/11/04 11:22:50;;;;;;;10.00;7.93;;;11.60;99.90;;;;;;5232739;28;21674;-51
2022/11/04 11:25:34;;;;;;;25.27;12.57;;;11.60;99.90;;;;;;5238639;28;20437;-51
2022/11/04 11:28:11;;;;;;;10.93;8.40;;;11.50;99.90;;;;;;5243125;28;20598;-50
2022/11/04 11:30:45;;;;;;;8.07;7.20;;;11.60;99.90;;;;;;5238974;28;20499;-51
2022/11/04 11:33:31;;;;;;;18.30;8.07;;;11.50;99.90;;;;;;5235416;28;20431;-53
2022/11/04 11:36:22;;;;;;;15.43;7.67;;;11.50;99.90;;;;;;5240417;28;20436;-53
2022/11/04 11:38:56;;;;;;;20.73;13.33;;;11.50;99.90;;;;;;5232109;28;20456;-51
2022/11/04 11:41:31;;;;;;;11.70;9.03;;;11.40;99.90;;;;;;5237185;28;20445;-52
2022/11/04 11:44:16;;;;;;;11.80;8.87;;;11.30;99.90;;;;;;5245421;28;20975;-52
2022/11/04 11:47:00;;;;;;;13.73;7.13;;;11.30;99.90;;;;;;5237998;28;20801;-52
2022/11/04 11:49:33;;;;;;;15.80;7.30;;;11.30;99.90;;;;;;5246520;28;21074;-51
2022/11/04 11:52:26;;;;;;;8.87;7.53;;;11.30;99.90;;;;;;5239167;28;20460;-52
2022/11/04 11:55:17;;;;;;;9.33;7.20;;;11.30;99.90;;;;;;5245736;28;20743;-50
2022/11/04 11:58:12;;;;;;;7.97;7.27;;;11.30;99.90;;;;;;5241094;28;20452;-51
2022/11/04 12:01:01;;;;;;;17.37;12.40;;;11.30;99.90;;;;;;5245208;28;20540;-51
2022/11/04 12:03:39;;;;;;;22.93;12.73;;;11.40;99.90;;;;;;5244936;28;20445;-52
2022/11/04 12:06:32;;;;;;;18.47;11.43;;;11.30;99.90;;;;;;5248472;28;20475;-51
2022/11/04 12:09:24;;;;;;;34.22;17.83;;;11.30;99.90;;;;;;5184985;28;1445735;-53
2022/11/04 12:12:15;;;;;;;26.40;14.10;;;11.30;99.90;;;;;;5239613;28;20209;-50
2022/11/04 12:15:09;;;;;;;22.10;12.37;;;11.20;99.90;;;;;;5235326;28;20948;-50
2022/11/04 12:17:58;;;;;;;15.57;10.83;;;11.20;99.90;;;;;;5236238;28;20444;-51
2022/11/04 12:21:05;;;;;;;13.97;9.77;;;11.20;99.90;;;;;;5233069;28;20970;-52
2022/11/04 12:23:52;;;;;;;15.60;10.70;;;11.20;99.90;;;;;;5237670;28;20485;-52
2022/11/04 12:26:42;;;;;;;52.47;25.80;;;11.00;99.90;;;;;;5236467;28;20456;-51
2022/11/04 12:29:29;;;;;;;18.20;11.77;;;11.00;99.90;;;;;;5234365;28;20471;-52
2022/11/04 12:32:30;;;;;;;9.30;8.37;;;11.00;99.90;;;;;;5241279;28;20428;-52
2022/11/04 12:35:38;;;;;;;10.80;9.13;;;11.10;99.90;;;;;;5239468;28;20432;-52
2022/11/04 12:38:33;;;;;;;14.17;10.90;;;11.10;99.90;;;;;;5236278;28;20652;-51
2022/11/04 12:41:55;;;;;;;26.47;15.40;;;11.20;99.90;;;;;;5259344;28;20466;-51
2022/11/04 12:44:49;;;;;;;10.97;9.40;;;11.10;99.90;;;;;;5175955;28;20429;-50
2022/11/04 12:47:29;;;;;;;10.43;8.07;;;11.20;99.90;;;;;;5241430;28;20789;-52
2022/11/04 12:50:28;;;;;;;13.43;9.90;;;11.20;99.90;;;;;;5238580;28;20464;-52
2022/11/04 12:53:16;;;;;;;34.10;18.03;;;11.20;99.90;;;;;;5225336;28;20532;-50
2022/11/04 12:56:08;;;;;;;36.50;17.30;;;11.20;99.90;;;;;;5240882;28;21081;-51
2022/11/04 12:58:57;;;;;;;12.23;10.23;;;11.30;99.90;;;;;;5233308;28;20990;-50
2022/11/04 13:01:38;;;;;;;14.90;9.70;;;11.20;99.90;;;;;;5238216;28;21067;-50
2022/11/04 13:04:13;;;;;;;11.33;9.20;;;11.20;99.90;;;;;;5245069;28;20974;-50
2022/11/04 13:07:07;;;;;;;10.60;8.70;;;11.10;99.90;;;;;;5242931;28;20440;-52
2022/11/04 13:09:44;;;;;;;11.37;9.07;;;11.20;99.90;;;;;;5247328;28;20517;-50
2022/11/04 13:12:21;;;;;;;10.00;8.10;;;11.10;99.90;;;;;;5238679;28;20437;-51
2022/11/04 13:15:11;;;;;;;13.43;9.63;;;11.10;99.90;;;;;;5244721;28;20432;-51
2022/11/04 13:17:45;;;;;;;15.30;9.40;;;11.10;99.90;;;;;;5243142;28;21002;-51
2022/11/04 13:20:26;;;;;;;9.70;8.70;;;11.20;99.90;;;;;;5240210;28;20806;-52
2022/11/04 13:23:03;;;;;;;8.77;7.90;;;11.10;99.90;;;;;;5246198;28;20495;-50
2022/11/04 13:25:39;;;;;;;8.90;8.00;;;11.10;99.90;;;;;;5242030;28;20443;-51
2022/11/04 13:28:12;;;;;;;8.60;7.80;;;11.10;99.90;;;;;;5238812;28;20962;-49
2022/11/04 13:30:55;;;;;;;22.40;10.27;;;11.20;99.90;;;;;;5238781;28;20541;-50
2022/11/04 13:33:39;;;;;;;9.43;8.10;;;11.20;99.90;;;;;;5229664;28;20916;-52
2022/11/04 13:36:23;;;;;;;13.73;8.73;;;11.20;99.90;;;;;;5234718;28;20445;-50
2022/11/04 13:39:01;;;;;;;13.97;8.27;;;11.10;99.90;;;;;;5243336;28;20488;-50
2022/11/04 13:42:00;;;;;;;8.67;7.87;;;11.10;99.90;;;;;;5240732;28;20535;-48
2022/11/04 13:44:36;;;;;;;12.03;8.90;;;11.10;99.90;;;;;;5238295;28;20464;-49
2022/11/04 13:47:16;;;;;;;10.97;9.13;;;11.10;99.90;;;;;;5259658;28;20792;-50
2022/11/04 13:49:54;;;;;;;13.00;9.00;;;11.00;99.90;;;;;;5235873;28;20521;-49
2022/11/04 13:52:30;;;;;;;12.60;10.50;;;10.90;99.90;;;;;;5244118;28;20436;-48
2022/11/04 13:55:15;;;;;;;10.47;8.73;;;10.90;99.90;;;;;;5244732;28;20486;-48
2022/11/04 13:58:05;;;;;;;18.73;12.47;;;10.80;99.90;;;;;;5241023;28;20493;-47
2022/11/04 14:00:36;;;;;;;18.20;12.10;;;10.80;99.90;;;;;;5236281;28;20436;-49
2022/11/04 14:03:25;;;;;;;12.50;10.10;;;10.70;99.90;;;;;;5242444;28;20448;-48